Time;durP1;ratioP1;P1;durP2;ratioP2;P2;SDS_P1;SDS_P2;PMS_P1;PMS_P2;Temp;Humidity;BMP_temperature;BMP_pressure;BME280_temperature;BME280_humidity;BME280_pressure;Samples;Min_cycle;Max_cycle;Signal;HPM_P1;HPM_P2
2022/06/05 00:04:50;;;;;;;11.40;9.70;;;;;;;18.73;65.16;99318.67;233726;1217;139119;-60
2022/06/05 00:10:16;;;;;;;10.60;8.60;;;;;;;18.72;65.16;99324.13;233736;1217;139346;-62
2022/06/05 00:15:19;;;;;;;11.00;9.30;;;;;;;18.72;65.20;99319.45;233851;1216;139593;-62
2022/06/05 00:20:22;;;;;;;11.40;8.90;;;;;;;18.72;65.12;99316.73;233583;1217;139078;-62
2022/06/05 00:25:38;;;;;;;14.90;9.60;;;;;;;18.71;65.13;99324.91;233555;1216;139020;-63
2022/06/05 00:31:12;;;;;;;15.80;11.10;;;;;;;18.68;65.21;99333.59;233550;1217;138581;-60
2022/06/05 00:36:50;;;;;;;12.20;11.00;;;;;;;18.66;65.34;99329.61;233635;1216;141637;-61
2022/06/05 00:41:58;;;;;;;12.40;10.10;;;;;;;18.67;65.42;99334.46;233573;1217;138848;-62
2022/06/05 00:47:06;;;;;;;12.50;9.60;;;;;;;18.64;65.43;99337.86;233574;1217;139567;-63
2022/06/05 00:52:11;;;;;;;15.70;10.40;;;;;;;18.73;65.68;99338.61;233674;1215;138767;-62
2022/06/05 00:57:15;;;;;;;11.10;10.00;;;;;;;18.78;65.69;99332.41;233826;1216;139046;-61
2022/06/05 01:02:18;;;;;;;12.00;10.50;;;;;;;18.74;65.36;99329.73;233538;1216;139370;-63
2022/06/05 01:07:22;;;;;;;13.30;10.50;;;;;;;18.62;65.33;99331.09;233088;1217;138981;-62
2022/06/05 01:12:39;;;;;;;12.10;10.80;;;;;;;18.55;65.40;99333.70;233647;1216;138926;-61
2022/06/05 01:18:07;;;;;;;11.90;10.30;;;;;;;18.50;65.52;99331.65;233600;1216;140156;-62
2022/06/05 01:23:35;;;;;;;12.70;11.10;;;;;;;18.53;65.96;99336.98;233873;1216;139666;-61
2022/06/05 01:28:49;;;;;;;14.40;11.50;;;;;;;18.58;66.06;99341.91;233697;1217;139470;-63
2022/06/05 01:34:18;;;;;;;14.10;12.50;;;;;;;18.57;65.93;99341.65;233505;1217;139829;-63
2022/06/05 01:39:28;;;;;;;15.50;12.40;;;;;;;18.54;66.06;99342.98;233474;1217;139418;-62
2022/06/05 01:44:39;;;;;;;15.70;13.00;;;;;;;18.54;66.10;99341.73;233620;1217;140995;-63
2022/06/05 01:49:50;;;;;;;16.60;13.50;;;;;;;18.55;66.01;99328.83;233588;1217;139406;-61
2022/06/05 01:55:11;;;;;;;16.00;13.20;;;;;;;18.46;65.97;99320.83;233475;1217;138712;-63
2022/06/05 02:00:20;;;;;;;15.70;13.20;;;;;;;18.40;66.16;99328.74;233523;1217;139658;-63
2022/06/05 02:05:28;;;;;;;14.40;11.70;;;;;;;18.33;66.23;99322.81;233752;1217;139266;-62
2022/06/05 02:10:44;;;;;;;15.70;11.30;;;;;;;18.30;66.13;99319.98;233545;1217;139692;-59
2022/06/05 02:15:48;;;;;;;16.70;13.80;;;;;;;18.28;66.06;99318.73;233471;1216;139234;-59
2022/06/05 02:20:51;;;;;;;16.40;13.30;;;;;;;18.23;66.16;99331.02;233556;1216;138772;-60
2022/06/05 02:25:55;;;;;;;15.80;13.20;;;;;;;18.20;66.10;99333.30;233741;1217;138777;-61
2022/06/05 02:31:08;;;;;;;14.10;12.10;;;;;;;18.17;66.32;99326.52;233471;1216;139579;-63
2022/06/05 02:36:48;;;;;;;15.40;12.20;;;;;;;18.19;66.33;99332.45;233601;1217;139989;-60
2022/06/05 02:42:02;;;;;;;18.90;12.30;;;;;;;18.16;66.38;99343.47;233463;1217;139514;-61
2022/06/05 02:47:17;;;;;;;16.80;12.80;;;;;;;18.17;66.58;99345.87;233591;1217;138981;-61
2022/06/05 02:52:22;;;;;;;24.20;14.20;;;;;;;18.24;66.71;99359.48;233502;1217;138643;-60
2022/06/05 02:57:25;;;;;;;17.80;12.90;;;;;;;18.18;66.77;99363.61;233454;1217;139088;-60
2022/06/05 03:07:50;;;;;;;17.50;13.70;;;;;;;18.17;66.83;99369.75;233520;1217;139638;-62
2022/06/05 03:12:53;;;;;;;19.60;15.50;;;;;;;18.18;67.04;99377.39;233474;1217;138961;-63
2022/06/05 03:17:56;;;;;;;18.40;15.00;;;;;;;18.15;67.08;99371.39;233525;1217;138809;-62
2022/06/05 03:23:00;;;;;;;17.80;14.00;;;;;;;18.15;66.87;99381.06;233689;1217;138892;-63
2022/06/05 03:28:03;;;;;;;17.30;14.10;;;;;;;18.11;66.72;99372.63;233708;1217;140308;-63
2022/06/05 03:33:08;;;;;;;18.00;14.50;;;;;;;18.14;66.77;99374.14;233584;1217;139535;-64
2022/06/05 03:38:12;;;;;;;19.60;15.10;;;;;;;18.08;66.87;99370.60;233679;1216;139408;-61
2022/06/05 03:43:16;;;;;;;17.50;13.70;;;;;;;18.04;66.43;99372.25;233577;1216;139211;-61
2022/06/05 03:48:19;;;;;;;15.80;13.00;;;;;;;17.97;66.61;99374.45;233534;1217;139940;-61
2022/06/05 03:53:22;;;;;;;16.30;12.90;;;;;;;17.97;66.53;99383.05;233586;1217;139878;-61
2022/06/05 03:58:26;;;;;;;16.00;13.50;;;;;;;17.92;66.69;99379.54;233683;1217;139438;-63
2022/06/05 04:03:29;;;;;;;18.80;14.10;;;;;;;17.93;66.76;99382.54;233619;1217;138720;-63
2022/06/05 04:08:34;;;;;;;16.00;13.20;;;;;;;17.87;66.89;99372.95;233726;1214;139065;-62
2022/06/05 04:13:38;;;;;;;15.50;13.00;;;;;;;17.89;67.07;99380.50;233591;1216;138519;-62
2022/06/05 04:18:42;;;;;;;15.50;13.10;;;;;;;17.94;67.15;99389.21;233631;1217;140046;-62
2022/06/05 04:23:46;;;;;;;17.20;13.50;;;;;;;18.04;67.18;99400.77;233556;1217;139363;-62
2022/06/05 04:28:49;;;;;;;18.40;13.90;;;;;;;18.07;67.08;99394.59;233704;1217;139046;-62
2022/06/05 04:33:56;;;;;;;16.50;14.70;;;;;;;18.10;67.35;99401.86;233555;1217;138879;-64
2022/06/05 04:39:02;;;;;;;16.70;13.60;;;;;;;18.12;67.17;99409.00;233612;1217;140402;-64
2022/06/05 04:44:08;;;;;;;19.20;13.50;;;;;;;18.16;67.12;99413.15;233584;1217;140184;-63
2022/06/05 04:49:12;;;;;;;;;;;;;;;18.19;67.10;99401.44;233751;1216;139164;-59
2022/06/05 04:54:16;;;;;;;17.10;14.70;;;;;;;18.18;67.12;99398.10;233582;1217;124863;-60
2022/06/05 04:59:19;;;;;;;17.00;14.30;;;;;;;18.15;67.21;99404.08;233646;1217;139499;-59
2022/06/05 05:04:22;;;;;;;16.50;13.80;;;;;;;18.15;67.08;99413.41;233630;1217;138915;-62
2022/06/05 05:09:25;;;;;;;16.10;13.50;;;;;;;18.15;67.10;99405.17;233540;1217;139092;-62
2022/06/05 05:14:28;;;;;;;17.90;13.90;;;;;;;18.18;67.05;99416.52;233636;1216;138992;-62
2022/06/05 05:19:31;;;;;;;17.70;13.90;;;;;;;18.20;67.26;99422.48;233525;1217;139121;-61
2022/06/05 05:24:34;;;;;;;20.50;14.40;;;;;;;18.30;67.14;99421.09;233430;1216;139282;-61
2022/06/05 05:29:41;;;;;;;22.30;14.20;;;;;;;18.32;67.11;99424.19;233712;1217;140176;-61
2022/06/05 05:34:44;;;;;;;19.60;14.90;;;;;;;18.37;67.11;99420.98;233662;1217;140670;-61
2022/06/05 05:45:09;;;;;;;18.10;14.80;;;;;;;18.55;67.13;99422.30;233571;1217;139042;-62
2022/06/05 05:50:17;;;;;;;17.10;14.50;;;;;;;18.59;67.16;99420.18;233618;1217;139019;-62
2022/06/05 05:55:20;;;;;;;17.90;14.40;;;;;;;18.69;67.38;99415.67;233573;1217;139306;-64
2022/06/05 06:00:23;;;;;;;20.80;14.60;;;;;;;18.83;67.16;99420.00;233498;1217;139863;-65
2022/06/05 06:05:26;;;;;;;16.90;12.80;;;;;;;18.99;67.33;99414.61;233545;1217;139255;-64
2022/06/05 06:10:29;;;;;;;20.90;15.20;;;;;;;19.19;67.34;99413.02;233498;1217;138920;-65
2022/06/05 06:15:32;;;;;;;18.30;14.70;;;;;;;19.32;67.19;99407.30;233521;1217;139211;-64
2022/06/05 06:20:35;;;;;;;16.40;13.90;;;;;;;19.49;66.81;99408.69;233598;1217;139173;-58
2022/06/05 06:25:38;;;;;;;15.20;12.90;;;;;;;19.60;66.44;99409.15;233471;1217;138979;-60
2022/06/05 06:30:41;;;;;;;17.20;14.00;;;;;;;19.72;66.49;99406.94;233545;1217;139852;-63
2022/06/05 06:35:44;;;;;;;118.90;96.60;;;;;;;19.90;66.42;99404.77;233520;1217;139282;-62
2022/06/05 06:40:47;;;;;;;18.30;16.40;;;;;;;20.09;66.46;99404.50;233665;1216;139219;-59
2022/06/05 06:45:54;;;;;;;16.90;14.80;;;;;;;20.23;66.41;99393.10;233618;1217;138789;-59
2022/06/05 06:50:59;;;;;;;48.10;42.60;;;;;;;20.30;66.14;99385.77;233629;1217;139165;-58
2022/06/05 06:56:12;;;;;;;58.00;48.20;;;;;;;20.42;66.00;99380.48;233501;1217;139071;-57
2022/06/05 07:01:16;;;;;;;25.40;21.60;;;;;;;20.60;65.69;99382.91;233615;1216;141477;-58
2022/06/05 07:06:22;;;;;;;21.30;19.10;;;;;;;20.66;65.04;99379.38;233566;1217;139512;-59
2022/06/05 07:11:25;;;;;;;54.20;47.00;;;;;;;20.73;64.90;99372.58;233711;1217;138866;-63
2022/06/05 07:16:28;;;;;;;18.30;16.50;;;;;;;20.85;64.82;99377.86;233553;1217;141425;-63
2022/06/05 07:21:31;;;;;;;21.90;19.60;;;;;;;20.97;64.72;99381.01;233415;1217;138621;-61
2022/06/05 07:26:35;;;;;;;20.40;16.30;;;;;;;21.08;64.61;99382.20;233634;1216;139098;-63
2022/06/05 07:31:38;;;;;;;19.00;15.40;;;;;;;21.22;64.57;99377.22;233654;1217;139085;-61
2022/06/05 07:36:41;;;;;;;51.00;41.60;;;;;;;21.34;64.45;99378.92;233607;1216;141449;-61
2022/06/05 07:41:44;;;;;;;20.40;17.60;;;;;;;21.50;64.09;99386.92;233584;1217;140897;-61
2022/06/05 07:46:47;;;;;;;20.70;18.60;;;;;;;21.61;63.96;99385.96;233729;1217;138756;-65
2022/06/05 07:57:13;;;;;;;14.10;12.80;;;;;;;21.86;63.58;99391.80;233517;1217;139048;-60
2022/06/05 08:02:22;;;;;;;15.10;13.50;;;;;;;21.93;63.20;99395.46;233666;1217;139342;-60
2022/06/05 08:07:29;;;;;;;15.00;13.40;;;;;;;21.91;62.94;99400.14;233658;1216;138942;-61
2022/06/05 08:12:34;;;;;;;14.00;12.50;;;;;;;21.93;62.71;99398.19;233592;1217;139062;-60
2022/06/05 08:17:36;;;;;;;13.40;11.80;;;;;;;21.95;62.37;99403.68;233749;1215;141022;-60
2022/06/05 08:22:40;;;;;;;11.80;10.50;;;;;;;21.98;62.23;99402.75;233585;1217;140145;-60
2022/06/05 08:27:43;;;;;;;11.90;10.70;;;;;;;22.03;62.13;99408.75;233501;1217;140281;-59
2022/06/05 08:32:46;;;;;;;10.60;9.40;;;;;;;22.13;61.94;99411.65;233595;1216;140492;-61
2022/06/05 08:43:31;;;;;;;10.70;9.50;;;;;;;22.26;61.25;99400.88;233561;1217;138333;-59
2022/06/05 08:48:43;;;;;;;11.80;8.40;;;;;;;22.34;60.63;99399.68;233594;1217;140013;-60
2022/06/05 08:53:51;;;;;;;9.70;8.40;;;;;;;22.42;60.21;99400.23;233625;1217;139578;-64
2022/06/05 08:59:13;;;;;;;8.70;7.80;;;;;;;22.55;59.76;99389.13;233737;1216;137982;-59
2022/06/05 09:04:29;;;;;;;8.70;7.60;;;;;;;22.60;59.15;99387.02;233627;1216;138648;-63
2022/06/05 09:09:44;;;;;;;10.60;7.20;;;;;;;22.68;58.68;99385.19;233609;1216;138723;-65
2022/06/05 09:15:16;;;;;;;9.60;6.70;;;;;;;22.75;58.18;99375.64;233719;1215;138997;-62
2022/06/05 09:20:26;;;;;;;15.60;12.00;;;;;;;22.90;57.60;99379.83;233554;1216;138893;-65
2022/06/05 09:25:39;;;;;;;27.70;21.00;;;;;;;23.00;57.22;99375.45;233562;1217;139176;-63
2022/06/05 09:31:36;;;;;;;18.50;14.50;;;;;;;23.14;56.45;99380.78;233515;1217;139020;-64
2022/06/05 09:36:43;;;;;;;12.70;10.40;;;;;;;23.15;56.00;99375.08;233287;1217;139319;-60
2022/06/05 09:42:03;;;;;;;10.00;6.60;;;;;;;23.24;55.70;99372.85;233742;1217;139300;-62
2022/06/05 09:47:29;;;;;;;11.60;7.50;;;;;;;23.32;55.34;99368.17;233774;1216;139322;-64
2022/06/05 09:52:33;;;;;;;14.20;7.60;;;;;;;23.36;55.19;99374.59;233395;1216;138948;-63
2022/06/05 10:03:24;;;;;;;5.90;5.10;;;;;;;23.79;54.52;99372.91;233614;1217;141108;-63
2022/06/05 10:08:37;;;;;;;4.30;3.80;;;;;;;23.88;53.71;99372.60;233617;1217;138565;-63
2022/06/05 10:13:48;;;;;;;6.30;4.10;;;;;;;24.00;52.99;99365.75;233622;1215;138400;-64
2022/06/05 10:18:58;;;;;;;6.50;3.70;;;;;;;24.13;52.47;99367.38;233653;1217;139613;-64
2022/06/05 10:24:04;;;;;;;9.10;4.30;;;;;;;24.37;52.08;99370.75;233551;1217;139660;-64
2022/06/05 10:29:30;;;;;;;5.00;4.00;;;;;;;24.46;51.37;99366.98;233731;1216;139509;-63
2022/06/05 10:34:53;;;;;;;6.20;4.00;;;;;;;24.50;50.99;99359.83;233512;1217;139014;-64
2022/06/05 10:40:20;;;;;;;4.10;3.60;;;;;;;24.62;50.76;99359.02;233654;1215;138808;-64
2022/06/05 10:46:04;;;;;;;6.10;3.70;;;;;;;24.65;50.23;99356.60;233551;1216;140114;-63
2022/06/05 10:51:35;;;;;;;5.20;3.70;;;;;;;24.78;50.19;99352.40;233548;1216;138756;-61
2022/06/05 10:56:46;;;;;;;4.30;3.30;;;;;;;25.06;50.10;99343.71;233589;1217;138742;-61
2022/06/05 11:02:26;;;;;;;8.70;3.80;;;;;;;25.32;49.80;99336.25;233550;1217;139495;-59
2022/06/05 11:07:52;;;;;;;4.60;3.60;;;;;;;25.56;49.28;99329.98;233566;1217;139155;-60
2022/06/05 11:18:41;;;;;;;8.70;4.50;;;;;;;26.03;48.64;99331.77;233228;1217;138759;-60
2022/06/05 11:23:50;;;;;;;4.30;3.60;;;;;;;26.10;47.93;99328.91;233505;1216;139522;-60
2022/06/05 11:29:21;;;;;;;5.60;3.30;;;;;;;26.16;47.49;99322.26;233782;1217;139144;-60
2022/06/05 11:34:49;;;;;;;5.00;3.30;;;;;;;26.37;47.04;99319.13;232963;1217;139007;-63
2022/06/05 11:40:09;;;;;;;4.90;3.70;;;;;;;26.30;46.68;99312.27;233632;1217;138614;-61
2022/06/05 11:45:33;;;;;;;3.20;2.90;;;;;;;26.14;46.03;99313.44;233558;1216;141010;-62
2022/06/05 11:50:59;;;;;;;5.00;3.40;;;;;;;26.34;46.25;99306.69;233609;1216;139842;-61
2022/06/05 11:56:17;;;;;;;6.70;4.30;;;;;;;26.57;45.66;99296.02;233669;1217;138501;-64
2022/06/05 12:01:28;;;;;;;3.40;3.10;;;;;;;26.67;44.91;99293.45;233678;1217;139095;-65
2022/06/05 12:06:38;;;;;;;4.60;2.90;;;;;;;26.76;45.05;99281.01;233614;1217;138587;-63
2022/06/05 12:12:00;;;;;;;24.60;18.50;;;;;;;27.02;45.01;99283.01;233592;1216;140090;-64
2022/06/05 12:17:19;;;;;;;5.80;3.30;;;;;;;27.19;44.16;99278.52;233654;1217;140307;-63
2022/06/05 12:22:34;;;;;;;3.10;2.80;;;;;;;27.03;43.92;99268.93;233517;1217;138702;-64
2022/06/05 12:28:05;;;;;;;14.20;10.60;;;;;;;27.12;43.77;99277.27;233525;1217;140772;-64
2022/06/05 12:33:08;;;;;;;4.70;3.00;;;;;;;27.25;43.55;99264.38;233317;1217;139050;-60
2022/06/05 12:38:15;;;;;;;6.50;3.20;;;;;;;27.44;43.52;99259.27;233429;1217;139401;-62
2022/06/05 12:43:53;;;;;;;7.80;2.70;;;;;;;27.58;43.03;99252.05;233508;1215;139366;-64
2022/06/05 12:49:12;;;;;;;3.10;2.50;;;;;;;27.72;42.40;99244.91;233318;1216;138845;-60
2022/06/05 12:55:01;;;;;;;5.30;2.50;;;;;;;27.92;42.36;99239.92;233410;1217;139434;-61
2022/06/05 13:00:18;;;;;;;4.40;4.00;;;;;;;28.17;42.11;99232.55;233566;1216;138686;-61
2022/06/05 13:05:40;;;;;;;5.20;3.60;;;;;;;28.18;41.49;99237.02;233657;1216;138677;-60
2022/06/05 13:11:04;;;;;;;5.30;2.60;;;;;;;27.90;40.75;99230.61;233597;1216;138524;-60
2022/06/05 13:16:17;;;;;;;3.30;2.30;;;;;;;27.94;40.73;99225.09;233557;1217;138363;-61
2022/06/05 13:21:33;;;;;;;3.80;2.50;;;;;;;28.13;40.60;99212.61;233527;1217;140204;-61
2022/06/05 13:26:55;;;;;;;5.90;2.50;;;;;;;28.42;40.54;99209.25;233435;1217;139340;-61
2022/06/05 13:32:23;;;;;;;3.30;2.70;;;;;;;28.53;40.15;99198.13;233345;1217;139833;-61
2022/06/05 13:37:49;;;;;;;5.40;2.40;;;;;;;28.18;39.54;99203.29;233542;1217;139554;-63
2022/06/05 13:42:53;;;;;;;3.10;2.80;;;;;;;27.90;39.68;99204.40;233581;1216;208712;-62
2022/06/05 13:48:08;;;;;;;3.70;2.10;;;;;;;28.05;39.97;99196.38;233502;1216;138715;-62
2022/06/05 13:53:17;;;;;;;4.80;4.00;;;;;;;28.25;39.67;99186.89;233719;1216;138945;-62
2022/06/05 13:58:29;;;;;;;4.40;3.70;;;;;;;28.35;39.04;99188.39;233504;1216;138475;-62
2022/06/05 14:03:49;;;;;;;4.90;3.20;;;;;;;28.41;38.63;99182.62;233576;1217;138313;-62
2022/06/05 14:09:09;;;;;;;3.80;2.40;;;;;;;28.59;38.33;99177.78;233492;1217;138654;-62
2022/06/05 14:14:12;;;;;;;5.10;2.40;;;;;;;28.65;37.89;99169.27;233527;1217;139509;-61
2022/06/05 14:19:28;;;;;;;2.60;2.40;;;;;;;28.57;37.73;99165.23;233450;1217;138561;-62
2022/06/05 14:24:39;;;;;;;6.10;2.70;;;;;;;28.54;37.83;99158.18;233592;1217;139465;-61
2022/06/05 14:29:47;;;;;;;2.70;2.20;;;;;;;28.43;37.60;99162.87;233423;1217;138893;-63
2022/06/05 14:35:15;;;;;;;18.30;16.50;;;;;;;28.19;37.44;99157.52;233540;1217;139192;-62
2022/06/05 14:40:22;;;;;;;5.50;3.50;;;;;;;27.88;37.36;99151.03;233452;1217;139951;-62
2022/06/05 14:45:27;;;;;;;5.40;2.30;;;;;;;27.72;37.47;99142.06;233474;1217;138659;-62
2022/06/05 14:50:41;;;;;;;2.60;2.30;;;;;;;27.42;37.28;99130.64;233434;1215;138572;-62
2022/06/05 15:01:20;;;;;;;3.00;2.30;;;;;;;26.83;37.45;99134.70;233632;1216;139016;-64
2022/06/05 15:06:30;;;;;;;4.30;2.70;;;;;;;26.63;37.43;99124.52;233595;1216;138327;-62
2022/06/05 15:11:40;;;;;;;2.50;2.30;;;;;;;26.34;37.42;99114.32;233683;1216;140045;-62
2022/06/05 15:16:49;;;;;;;3.30;2.50;;;;;;;26.18;37.17;99103.45;233688;1217;138727;-63
2022/06/05 15:22:25;;;;;;;3.70;2.10;;;;;;;26.00;37.25;99112.44;233559;1217;138832;-63
2022/06/05 15:27:48;;;;;;;9.90;8.00;;;;;;;25.77;37.34;99111.00;233389;1215;139143;-63
2022/06/05 15:33:15;;;;;;;4.00;2.40;;;;;;;25.66;37.64;99113.11;233567;1217;139795;-63
2022/06/05 15:38:52;;;;;;;2.60;2.10;;;;;;;25.57;37.45;99113.95;233352;1217;139177;-62
2022/06/05 15:44:15;;;;;;;3.90;2.10;;;;;;;25.53;37.75;99108.27;233217;1217;139534;-62
2022/06/05 15:49:55;;;;;;;4.10;3.30;;;;;;;25.44;37.58;99108.50;233569;1216;140475;-63
2022/06/05 15:55:22;;;;;;;7.90;3.70;;;;;;;25.37;37.48;99123.36;233418;1217;138453;-63
2022/06/05 16:00:28;;;;;;;4.30;2.90;;;;;;;25.41;37.84;99122.41;233586;1217;138862;-61
2022/06/05 16:05:40;;;;;;;6.40;3.60;;;;;;;25.34;37.91;99114.10;233639;1217;138861;-61
2022/06/05 16:10:54;;;;;;;7.50;2.90;;;;;;;25.31;38.02;99122.41;233506;1217;138722;-62
2022/06/05 16:16:25;;;;;;;3.10;2.40;;;;;;;25.26;38.04;99114.45;233579;1217;138454;-62
2022/06/05 16:21:46;;;;;;;2.80;2.00;;;;;;;25.25;37.70;99112.39;233491;1216;139621;-63
2022/06/05 16:26:59;;;;;;;2.80;2.30;;;;;;;25.19;37.53;99110.08;233605;1216;139558;-60
2022/06/05 16:32:03;;;;;;;6.40;5.20;;;;;;;25.24;37.58;99109.11;233567;1215;140719;-62
2022/06/05 16:42:35;;;;;;;6.00;5.00;;;;;;;25.32;37.56;99098.92;233327;1217;139679;-61
2022/06/05 16:47:50;;;;;;;2.40;2.20;;;;;;;25.30;37.40;99100.95;233213;1217;139574;-62
2022/06/05 16:52:54;;;;;;;4.80;2.30;;;;;;;25.19;37.50;99105.59;233475;1216;139040;-62
2022/06/05 16:58:06;;;;;;;3.60;2.30;;;;;;;25.15;37.40;99101.73;233403;1215;139240;-62
2022/06/05 17:03:42;;;;;;;6.40;1.90;;;;;;;25.06;37.44;99102.02;233471;1216;139228;-63
2022/06/05 17:08:50;;;;;;;5.70;3.20;;;;;;;25.04;37.48;99099.73;233540;1216;139051;-63
2022/06/05 17:13:53;;;;;;;4.80;2.50;;;;;;;24.99;37.52;99095.34;233539;1217;138811;-64
2022/06/05 17:19:03;;;;;;;3.00;2.10;;;;;;;25.02;37.36;99088.75;233392;1217;139122;-63
2022/06/05 17:24:46;;;;;;;86.50;61.90;;;;;;;25.00;37.11;99079.73;233609;1216;138779;-63
2022/06/05 17:30:16;;;;;;;24.80;5.70;;;;;;;24.96;37.28;99082.88;233427;1217;139759;-63
2022/06/05 17:35:25;;;;;;;22.40;7.00;;;;;;;24.86;37.06;99082.83;233749;1217;139749;-63
2022/06/05 17:40:46;;;;;;;3.50;2.40;;;;;;;24.81;37.09;99073.98;233466;1217;140053;-63
2022/06/05 17:46:08;;;;;;;9.90;3.80;;;;;;;24.76;37.07;99069.73;233195;1217;138526;-63
2022/06/05 17:51:34;;;;;;;13.30;6.70;;;;;;;24.65;36.92;99061.67;233313;1217;138789;-61
2022/06/05 17:56:41;;;;;;;5.50;3.00;;;;;;;24.56;36.85;99066.64;233549;1217;138676;-63
2022/06/05 18:01:46;;;;;;;3.70;2.30;;;;;;;24.52;36.59;99074.44;233390;1217;138716;-63
2022/06/05 18:06:51;;;;;;;2.10;1.80;;;;;;;24.46;36.47;99080.28;233408;1216;139024;-65
2022/06/05 18:12:14;;;;;;;22.20;15.20;;;;;;;24.40;36.14;99081.70;233504;1217;138407;-63
2022/06/05 18:17:29;;;;;;;23.00;19.60;;;;;;;24.33;36.27;99085.21;233696;1217;139927;-63
2022/06/05 18:22:50;;;;;;;6.20;3.70;;;;;;;24.27;36.30;99084.27;233417;1217;139024;-62
2022/06/05 18:28:01;;;;;;;3.80;3.10;;;;;;;24.14;36.21;99081.24;233438;1217;138305;-62
2022/06/05 18:33:23;;;;;;;3.10;2.00;;;;;;;24.04;36.39;99097.33;233356;1217;138793;-62
2022/06/05 18:38:30;;;;;;;;;;;;;;;23.92;36.39;99094.76;233505;1217;138703;-64
2022/06/05 18:43:37;;;;;;;3.50;2.60;;;;;;;23.81;36.41;99102.15;233417;1217;124773;-63
2022/06/05 18:48:42;;;;;;;7.60;2.10;;;;;;;23.67;36.21;99097.31;233459;1217;138638;-62
2022/06/05 18:53:50;;;;;;;2.40;1.90;;;;;;;23.60;36.07;99108.24;233370;1217;139250;-61
2022/06/05 18:58:53;;;;;;;3.30;2.00;;;;;;;23.45;35.96;99121.00;233636;1217;138809;-61
2022/06/05 19:04:03;;;;;;;3.90;1.90;;;;;;;23.27;35.89;99128.98;233441;1217;141768;-62
2022/06/05 19:09:13;;;;;;;5.00;2.10;;;;;;;23.13;35.98;99131.80;233600;1217;138967;-63
2022/06/05 19:14:20;;;;;;;8.50;1.90;;;;;;;23.03;35.89;99132.33;233470;1217;138887;-63
2022/06/05 19:19:28;;;;;;;3.60;1.90;;;;;;;22.89;35.97;99130.73;233490;1217;138734;-62
2022/06/05 19:24:41;;;;;;;7.20;2.20;;;;;;;22.81;36.11;99138.47;233497;1217;138991;-62
2022/06/05 19:29:47;;;;;;;5.30;2.80;;;;;;;22.74;36.46;99143.42;233619;1216;139052;-63
2022/06/05 19:34:54;;;;;;;5.60;2.70;;;;;;;22.63;36.82;99151.70;233575;1217;140007;-62
2022/06/05 19:40:10;;;;;;;4.60;3.20;;;;;;;22.53;37.26;99147.94;233418;1217;138874;-63
2022/06/05 19:45:36;;;;;;;4.60;3.10;;;;;;;22.46;37.78;99150.81;233429;1217;139282;-63
2022/06/05 19:50:45;;;;;;;4.20;3.20;;;;;;;22.39;38.30;99148.34;233633;1217;140213;-62
2022/06/05 19:55:51;;;;;;;4.90;3.20;;;;;;;22.35;38.58;99146.88;233460;1217;139164;-62
2022/06/05 20:01:30;;;;;;;5.40;3.20;;;;;;;22.26;38.89;99147.27;233199;1217;139375;-63
2022/06/05 20:06:38;;;;;;;4.80;3.40;;;;;;;22.16;39.38;99150.70;233460;1217;139837;-64
2022/06/05 20:12:02;;;;;;;4.60;3.80;;;;;;;22.06;39.66;99158.88;233741;1217;138700;-62
2022/06/05 20:17:47;;;;;;;4.80;3.60;;;;;;;21.93;39.96;99165.22;233560;1217;138280;-63
2022/06/05 20:22:57;;;;;;;5.40;3.90;;;;;;;21.80;40.26;99170.63;233453;1217;138214;-63
2022/06/05 20:28:09;;;;;;;5.90;3.80;;;;;;;21.66;40.63;99163.23;233646;1217;139672;-63
2022/06/05 20:33:28;;;;;;;6.10;4.20;;;;;;;21.55;40.93;99166.60;233578;1216;138850;-63
2022/06/05 20:38:50;;;;;;;5.90;4.00;;;;;;;21.42;41.20;99178.66;233331;1217;138422;-63
2022/06/05 20:44:07;;;;;;;8.20;4.90;;;;;;;21.30;41.53;99172.34;233568;1217;138591;-63
2022/06/05 20:49:15;;;;;;;6.00;4.30;;;;;;;21.19;41.93;99176.48;233567;1217;139048;-61
2022/06/05 20:54:19;;;;;;;5.10;4.40;;;;;;;21.14;42.35;99183.70;233631;1217;138488;-62
2022/06/05 20:59:22;;;;;;;5.00;4.30;;;;;;;21.11;42.51;99170.64;233531;1217;139266;-62
2022/06/05 21:09:55;;;;;;;8.10;4.30;;;;;;;21.08;42.78;99175.10;233414;1216;139548;-61
2022/06/05 21:20:22;;;;;;;5.10;4.60;;;;;;;21.05;43.02;99195.07;233645;1217;139279;-62
2022/06/05 21:25:36;;;;;;;6.80;4.20;;;;;;;21.06;43.22;99200.31;233604;1216;138621;-62
2022/06/05 21:30:45;;;;;;;7.70;4.20;;;;;;;21.03;43.30;99189.70;233552;1217;139024;-61
2022/06/05 21:35:55;;;;;;;5.00;4.50;;;;;;;20.97;43.27;99189.54;233527;1217;139714;-64
2022/06/05 21:41:12;;;;;;;6.20;4.80;;;;;;;20.87;43.43;99191.69;233679;1216;138176;-63
2022/06/05 21:46:25;;;;;;;4.60;4.20;;;;;;;20.82;43.64;99198.88;233679;1216;138788;-61
2022/06/05 21:51:34;;;;;;;5.00;4.50;;;;;;;20.67;43.72;99193.05;233523;1217;139108;-63
2022/06/05 21:56:45;;;;;;;4.90;4.40;;;;;;;20.55;44.03;99194.22;233437;1216;138491;-63
2022/06/05 22:01:48;;;;;;;4.90;4.40;;;;;;;20.44;44.20;99194.42;233423;1217;138943;-63
2022/06/05 22:06:51;;;;;;;11.60;4.60;;;;;;;20.33;44.52;99199.33;233599;1217;139298;-62
2022/06/05 22:11:54;;;;;;;5.80;4.80;;;;;;;20.20;44.73;99197.36;233530;1217;139012;-63
2022/06/05 22:17:00;;;;;;;8.40;5.10;;;;;;;20.14;45.03;99193.13;233533;1217;138701;-60
2022/06/05 22:22:05;;;;;;;6.90;5.30;;;;;;;20.02;45.12;99182.55;233566;1217;138707;-62
2022/06/05 22:27:17;;;;;;;5.60;5.00;;;;;;;19.93;45.36;99190.30;233419;1217;138696;-60
2022/06/05 22:32:21;;;;;;;6.80;4.90;;;;;;;19.84;45.45;99177.30;233431;1217;138526;-61
2022/06/05 22:37:24;;;;;;;7.10;5.20;;;;;;;19.76;45.64;99159.76;233590;1216;138815;-63
2022/06/05 22:42:28;;;;;;;8.00;5.50;;;;;;;19.67;45.90;99151.44;233568;1217;138371;-62
2022/06/05 22:47:31;;;;;;;5.90;5.30;;;;;;;19.60;46.11;99139.67;233661;1217;138600;-63
2022/06/05 22:52:35;;;;;;;6.90;5.80;;;;;;;19.52;46.27;99131.51;233560;1217;138374;-64
2022/06/05 22:57:38;;;;;;;10.00;6.70;;;;;;;19.48;46.51;99116.04;233492;1217;138351;-63
2022/06/05 23:02:41;;;;;;;7.50;6.10;;;;;;;19.43;46.67;99100.53;233521;1217;140803;-62
2022/06/05 23:07:45;;;;;;;7.20;6.30;;;;;;;19.42;46.91;99092.17;233452;1217;138528;-63
2022/06/05 23:12:48;;;;;;;7.60;6.80;;;;;;;19.40;46.98;99099.05;233577;1217;139210;-63
2022/06/05 23:17:56;;;;;;;7.50;6.50;;;;;;;19.34;47.00;99103.41;233398;1217;139344;-64
2022/06/05 23:22:59;;;;;;;7.80;7.00;;;;;;;19.31;47.31;99102.78;233537;1217;139562;-64
2022/06/05 23:28:03;;;;;;;7.60;6.90;;;;;;;19.26;47.47;99105.55;233443;1217;138623;-64
2022/06/05 23:33:06;;;;;;;6.80;6.20;;;;;;;19.17;47.56;99106.59;233444;1217;138406;-64
2022/06/05 23:38:09;;;;;;;7.90;7.00;;;;;;;19.11;47.96;99091.70;233670;1217;138418;-63
2022/06/05 23:43:12;;;;;;;7.50;6.70;;;;;;;19.06;48.17;99082.32;233553;1217;139056;-64
2022/06/05 23:48:15;;;;;;;9.30;7.10;;;;;;;19.05;48.29;99089.79;233485;1215;139096;-61
2022/06/05 23:53:18;;;;;;;9.10;7.10;;;;;;;18.99;48.57;99079.95;233734;1217;138867;-61
2022/06/05 23:58:21;;;;;;;8.90;7.00;;;;;;;18.96;48.58;99091.06;233720;1217;138673;-62
